Time;durP1;ratioP1;P1;durP2;ratioP2;P2;SDS_P1;SDS_P2;PMS_P1;PMS_P2;Temp;Humidity;BMP_temperature;BMP_pressure;BME280_temperature;BME280_humidity;BME280_pressure;Samples;Min_cycle;Max_cycle;Signal;HPM_P1;HPM_P2
2023/09/16 00:00:08;;;;;;;5.55;4.15;;;16.70;99.90;;;;;;2079017;28;20033;-72
2023/09/16 00:01:08;;;;;;;4.43;4.03;;;16.70;99.90;;;;;;2077291;28;20022;-72
2023/09/16 00:02:09;;;;;;;5.68;3.67;;;16.70;99.90;;;;;;2075769;28;20104;-72
2023/09/16 00:03:10;;;;;;;4.35;3.95;;;16.70;99.90;;;;;;2078963;28;20030;-72
2023/09/16 00:04:11;;;;;;;4.32;3.90;;;16.70;99.90;;;;;;2077672;28;20022;-72
2023/09/16 00:05:12;;;;;;;6.15;4.00;;;16.70;99.90;;;;;;2077942;28;20017;-72
2023/09/16 00:06:12;;;;;;;4.45;4.10;;;16.70;99.90;;;;;;2078646;28;20030;-72
2023/09/16 00:07:13;;;;;;;3.97;3.67;;;16.70;99.90;;;;;;2077950;28;20030;-72
2023/09/16 00:08:14;;;;;;;4.38;3.97;;;16.70;99.90;;;;;;2079110;28;20427;-72
2023/09/16 00:09:15;;;;;;;4.63;4.22;;;16.70;99.90;;;;;;2078858;28;20076;-72
2023/09/16 00:10:15;;;;;;;5.65;4.60;;;16.60;99.90;;;;;;2076832;28;20041;-72
2023/09/16 00:11:16;;;;;;;4.72;4.22;;;16.60;99.90;;;;;;2077436;28;20037;-72
2023/09/16 00:12:16;;;;;;;4.97;4.40;;;16.60;99.90;;;;;;2077818;28;20030;-71
2023/09/16 00:13:18;;;;;;;6.75;4.30;;;16.60;99.90;;;;;;2079435;28;20040;-71
2023/09/16 00:14:19;;;;;;;4.55;4.15;;;16.60;99.90;;;;;;2077655;28;20354;-71
2023/09/16 00:15:21;;;;;;;4.70;4.28;;;16.60;99.90;;;;;;2078463;28;20052;-71
2023/09/16 00:16:22;;;;;;;5.20;4.70;;;16.60;99.90;;;;;;2071586;28;20033;-71
2023/09/16 00:17:22;;;;;;;4.03;3.72;;;16.60;99.90;;;;;;2073529;28;20030;-71
2023/09/16 00:18:23;;;;;;;4.40;4.00;;;16.60;99.90;;;;;;2077080;28;20030;-71
2023/09/16 00:19:24;;;;;;;5.55;4.13;;;16.60;99.90;;;;;;2079221;28;20025;-71
2023/09/16 00:20:27;;;;;;;4.95;4.18;;;16.60;99.90;;;;;;2078075;28;20037;-71
2023/09/16 00:21:27;;;;;;;4.80;4.38;;;16.60;99.90;;;;;;2076664;28;20033;-71
2023/09/16 00:22:28;;;;;;;5.75;4.40;;;16.60;99.90;;;;;;2075581;28;20516;-71
2023/09/16 00:23:28;;;;;;;4.68;4.28;;;16.60;99.90;;;;;;2070734;28;20071;-71
2023/09/16 00:24:29;;;;;;;4.70;4.25;;;16.60;99.90;;;;;;2072557;28;20017;-71
2023/09/16 00:25:30;;;;;;;4.80;4.40;;;16.60;99.90;;;;;;2078466;28;20076;-71
2023/09/16 00:26:32;;;;;;;4.35;3.95;;;16.60;99.90;;;;;;2077259;28;20025;-71
2023/09/16 00:27:32;;;;;;;5.80;4.47;;;16.60;99.90;;;;;;2078314;28;20068;-71
2023/09/16 00:28:35;;;;;;;6.60;4.50;;;16.60;99.90;;;;;;2075703;28;20059;-71
2023/09/16 00:29:36;;;;;;;9.02;4.63;;;16.60;99.90;;;;;;2078366;28;20022;-71
2023/09/16 00:30:44;;;;;;;7.13;4.35;;;16.50;99.90;;;;;;2077361;28;20048;-71
2023/09/16 00:31:45;;;;;;;4.15;3.63;;;16.50;99.90;;;;;;2076845;28;20021;-71
2023/09/16 00:32:46;;;;;;;5.07;4.13;;;16.50;99.90;;;;;;2078955;28;20526;-71
2023/09/16 00:33:49;;;;;;;6.20;4.05;;;16.50;99.90;;;;;;2076823;28;20033;-71
2023/09/16 00:34:51;;;;;;;4.40;4.00;;;16.50;99.90;;;;;;2077533;28;20032;-71
2023/09/16 00:35:51;;;;;;;4.55;4.15;;;16.50;99.90;;;;;;2077899;28;20468;-71
2023/09/16 00:36:52;;;;;;;4.70;4.15;;;16.50;99.90;;;;;;2074791;28;20414;-71
2023/09/16 00:37:52;;;;;;;7.13;4.70;;;16.50;99.90;;;;;;2077874;28;20108;-71
2023/09/16 00:38:53;;;;;;;6.00;4.72;;;16.50;99.90;;;;;;2077516;28;20412;-71
2023/09/16 00:39:53;;;;;;;4.68;4.32;;;16.50;99.90;;;;;;2076961;28;20025;-71
2023/09/16 00:40:54;;;;;;;4.97;3.72;;;16.50;99.90;;;;;;2076983;28;20061;-71
2023/09/16 00:41:55;;;;;;;4.88;4.38;;;16.50;99.90;;;;;;2078338;28;20012;-71
2023/09/16 00:42:55;;;;;;;5.93;4.78;;;16.50;99.90;;;;;;2076816;28;20380;-71
2023/09/16 00:43:56;;;;;;;4.57;4.07;;;16.50;99.90;;;;;;2073430;28;20033;-71
2023/09/16 00:44:56;;;;;;;5.00;4.50;;;16.50;99.90;;;;;;2072386;28;20410;-71
2023/09/16 00:45:57;;;;;;;4.32;3.88;;;16.50;99.90;;;;;;2078364;28;20036;-71
2023/09/16 00:46:57;;;;;;;4.57;4.18;;;16.60;99.90;;;;;;2077997;28;20080;-71
2023/09/16 00:47:58;;;;;;;6.22;4.75;;;16.60;99.90;;;;;;2078144;28;20043;-71
2023/09/16 00:48:59;;;;;;;4.95;4.40;;;16.50;99.90;;;;;;2078199;28;20515;-71
2023/09/16 00:50:00;;;;;;;5.50;5.00;;;16.60;99.90;;;;;;2080142;28;20030;-71
2023/09/16 00:51:01;;;;;;;6.07;4.78;;;16.60;99.90;;;;;;2075400;28;20056;-71
2023/09/16 00:52:02;;;;;;;4.75;4.00;;;16.60;99.90;;;;;;2077594;28;20040;-71
2023/09/16 00:53:03;;;;;;;5.15;4.65;;;16.60;99.90;;;;;;2077196;28;20029;-71
2023/09/16 00:54:04;;;;;;;4.95;4.45;;;16.60;99.90;;;;;;2077353;28;20033;-71
2023/09/16 00:55:05;;;;;;;4.63;4.10;;;16.60;99.90;;;;;;2067249;28;20037;-71
2023/09/16 00:56:07;;;;;;;5.68;4.53;;;16.60;99.90;;;;;;2069075;28;20044;-71
2023/09/16 00:57:12;;;;;;;4.72;3.88;;;16.60;99.90;;;;;;2069020;28;20030;-71
2023/09/16 00:58:17;;;;;;;5.22;4.72;;;16.60;99.90;;;;;;2067695;28;20196;-71
2023/09/16 00:59:20;;;;;;;6.88;4.90;;;16.60;99.90;;;;;;2077977;28;20922;-71
2023/09/16 01:00:26;;;;;;;4.57;4.18;;;16.60;99.90;;;;;;2075391;28;20033;-71
2023/09/16 01:01:26;;;;;;;4.18;3.88;;;16.70;99.90;;;;;;2074626;28;20052;-71
2023/09/16 01:02:27;;;;;;;6.65;4.53;;;16.60;99.90;;;;;;2077908;28;20033;-71
2023/09/16 01:03:28;;;;;;;5.10;4.57;;;16.70;99.90;;;;;;2078348;28;20036;-71
2023/09/16 01:04:30;;;;;;;5.63;5.00;;;16.60;99.90;;;;;;2078626;28;20049;-71
2023/09/16 01:05:31;;;;;;;5.95;5.03;;;16.70;99.90;;;;;;2070989;28;20512;-71
2023/09/16 01:06:32;;;;;;;6.75;5.40;;;16.70;99.90;;;;;;2069547;28;20506;-71
2023/09/16 01:07:32;;;;;;;7.00;5.18;;;16.70;99.90;;;;;;2078234;28;20107;-71
2023/09/16 01:08:36;;;;;;;4.40;4.00;;;16.70;99.90;;;;;;2077994;28;20021;-71
2023/09/16 01:09:38;;;;;;;5.88;4.35;;;16.70;99.90;;;;;;2076489;28;20021;-71
2023/09/16 01:10:40;;;;;;;6.10;4.45;;;16.70;99.90;;;;;;2078457;28;20025;-71
2023/09/16 01:11:41;;;;;;;6.03;4.88;;;16.70;99.90;;;;;;2078223;28;20423;-71
2023/09/16 01:12:42;;;;;;;4.90;4.40;;;16.70;99.90;;;;;;2078804;28;20088;-71
2023/09/16 01:13:43;;;;;;;4.85;4.20;;;16.70;99.90;;;;;;2078520;28;20014;-71
2023/09/16 01:14:43;;;;;;;5.50;4.47;;;16.70;99.90;;;;;;2076458;28;20116;-71
2023/09/16 01:18:19;;;;;;;5.32;4.82;;;16.70;99.90;;;;;;2079200;28;20041;-71
2023/09/16 01:19:20;;;;;;;5.85;4.85;;;16.70;99.90;;;;;;2076010;28;20108;-71
2023/09/16 01:20:22;;;;;;;8.27;4.53;;;16.70;99.90;;;;;;2079413;28;20732;-71
2023/09/16 01:21:23;;;;;;;5.72;4.85;;;16.70;99.90;;;;;;2077813;28;20030;-71
2023/09/16 01:22:25;;;;;;;6.65;5.13;;;16.80;99.90;;;;;;2077979;28;20025;-71
2023/09/16 01:23:25;;;;;;;5.00;4.50;;;16.80;99.90;;;;;;2077805;28;20037;-71
2023/09/16 01:24:26;;;;;;;5.93;4.75;;;16.80;99.90;;;;;;2077492;28;20037;-71
2023/09/16 01:25:27;;;;;;;5.18;4.47;;;16.80;99.90;;;;;;2076550;28;20045;-71
2023/09/16 01:26:28;;;;;;;5.65;4.05;;;16.80;99.90;;;;;;2076589;28;20068;-71
2023/09/16 01:27:29;;;;;;;5.38;4.68;;;16.80;99.90;;;;;;2077880;28;20108;-71
2023/09/16 01:28:29;;;;;;;4.97;4.38;;;16.80;99.90;;;;;;2077902;28;20049;-71
2023/09/16 01:29:30;;;;;;;5.97;4.53;;;16.80;99.90;;;;;;2076681;28;20030;-71
2023/09/16 01:30:35;;;;;;;5.78;4.35;;;16.80;99.90;;;;;;2074970;28;20113;-71
2023/09/16 01:31:36;;;;;;;5.75;4.55;;;16.90;99.90;;;;;;2078129;28;20068;-72
2023/09/16 01:33:09;;;;;;;4.55;4.15;;;16.90;99.90;;;;;;2075732;28;20030;-72
2023/09/16 01:34:27;;;;;;;5.53;4.68;;;16.90;99.90;;;;;;2075920;28;20124;-71
2023/09/16 01:35:32;;;;;;;4.82;4.32;;;16.80;99.90;;;;;;2075086;28;20036;-71
2023/09/16 01:36:34;;;;;;;5.20;4.70;;;16.90;99.90;;;;;;2075743;28;20779;-71
2023/09/16 01:37:35;;;;;;;4.93;4.22;;;16.90;99.90;;;;;;2078234;28;20064;-71
2023/09/16 01:38:37;;;;;;;7.15;4.78;;;16.90;99.90;;;;;;2069665;28;20038;-71
2023/09/16 01:39:40;;;;;;;4.50;4.10;;;16.90;99.90;;;;;;2068803;28;20354;-71
2023/09/16 01:40:43;;;;;;;5.30;4.63;;;16.90;99.90;;;;;;2077800;28;20048;-71
2023/09/16 01:41:45;;;;;;;4.90;4.50;;;16.90;99.90;;;;;;2076662;28;20029;-72
2023/09/16 01:42:46;;;;;;;6.68;5.05;;;17.00;99.90;;;;;;2076886;28;20508;-72
2023/09/16 01:43:46;;;;;;;5.10;4.32;;;17.00;99.90;;;;;;2077266;28;20415;-72
2023/09/16 01:44:48;;;;;;;5.38;4.65;;;17.00;99.90;;;;;;2076935;28;20507;-72
2023/09/16 01:45:48;;;;;;;7.00;5.28;;;17.00;99.90;;;;;;2076762;28;20022;-72
2023/09/16 01:46:49;;;;;;;5.55;5.05;;;17.00;99.90;;;;;;2067560;28;20155;-72
2023/09/16 01:47:50;;;;;;;5.20;4.47;;;17.00;99.90;;;;;;2069203;28;20022;-72
2023/09/16 01:48:50;;;;;;;5.50;5.00;;;17.00;99.90;;;;;;2077518;28;20026;-72
2023/09/16 01:49:51;;;;;;;5.38;4.38;;;17.00;99.90;;;;;;2076755;28;20049;-72
2023/09/16 01:50:51;;;;;;;4.82;4.43;;;17.00;99.90;;;;;;2076658;28;20025;-72
2023/09/16 01:51:52;;;;;;;6.22;4.55;;;17.00;99.90;;;;;;2077983;28;20018;-73
2023/09/16 01:52:52;;;;;;;5.05;4.50;;;17.10;99.90;;;;;;2075858;28;20025;-72
2023/09/16 01:53:54;;;;;;;4.70;4.20;;;17.10;99.90;;;;;;2076731;28;20469;-72
2023/09/16 01:54:54;;;;;;;5.57;4.57;;;17.10;99.90;;;;;;2079054;28;20476;-72
2023/09/16 01:55:55;;;;;;;5.28;4.78;;;17.10;99.90;;;;;;2077314;28;20686;-72
2023/09/16 01:56:56;;;;;;;6.25;4.32;;;17.10;99.90;;;;;;2077477;28;20101;-72
2023/09/16 01:57:57;;;;;;;4.75;4.25;;;17.10;99.90;;;;;;2068793;28;20054;-72
2023/09/16 01:58:58;;;;;;;5.32;4.80;;;17.10;99.90;;;;;;2066665;28;20041;-72
2023/09/16 01:59:58;;;;;;;5.50;5.00;;;17.10;99.90;;;;;;2076922;28;20033;-72
2023/09/16 02:00:59;;;;;;;5.55;5.05;;;17.10;99.90;;;;;;2077402;28;20036;-72
2023/09/16 02:01:59;;;;;;;5.40;4.40;;;17.10;99.90;;;;;;2074882;28;20048;-72
2023/09/16 02:03:00;;;;;;;6.10;4.95;;;17.10;99.90;;;;;;2075429;28;20025;-72
2023/09/16 02:04:01;;;;;;;5.53;4.85;;;17.10;99.90;;;;;;2076993;28;20033;-72
2023/09/16 02:05:01;;;;;;;4.93;4.18;;;17.10;99.90;;;;;;2077726;28;20025;-72
2023/09/16 02:06:02;;;;;;;5.30;4.47;;;17.10;99.90;;;;;;2077257;28;20417;-72
2023/09/16 02:07:03;;;;;;;6.63;5.00;;;17.10;99.90;;;;;;2077501;28;20059;-72
2023/09/16 02:08:04;;;;;;;4.57;4.18;;;17.20;99.90;;;;;;2077337;28;20136;-72
2023/09/16 02:09:04;;;;;;;5.20;4.47;;;17.20;99.90;;;;;;2078533;28;20033;-72
2023/09/16 02:10:05;;;;;;;4.55;4.15;;;17.20;99.90;;;;;;2078937;28;20033;-72
2023/09/16 02:11:06;;;;;;;6.45;4.93;;;17.20;99.90;;;;;;2077188;28;20115;-72
2023/09/16 02:12:07;;;;;;;4.22;3.88;;;17.20;99.90;;;;;;2075103;28;20111;-72
2023/09/16 02:13:07;;;;;;;4.50;4.10;;;17.20;99.90;;;;;;2076834;28;20045;-72
2023/09/16 02:14:13;;;;;;;5.40;4.85;;;17.20;99.90;;;;;;2067646;28;20396;-72
2023/09/16 02:15:14;;;;;;;5.65;5.05;;;17.20;99.90;;;;;;2069174;28;20037;-72
2023/09/16 02:16:14;;;;;;;5.25;4.60;;;17.20;99.90;;;;;;2075832;28;20049;-72
2023/09/16 02:17:16;;;;;;;7.60;4.20;;;17.20;99.90;;;;;;2067777;28;20360;-72
2023/09/16 02:18:17;;;;;;;6.13;4.10;;;17.20;99.90;;;;;;2069100;28;20057;-72
2023/09/16 02:19:18;;;;;;;5.88;4.20;;;17.20;99.90;;;;;;2074828;28;20121;-72
2023/09/16 02:20:18;;;;;;;4.40;3.88;;;17.20;99.90;;;;;;2078454;28;20025;-72
2023/09/16 02:21:19;;;;;;;5.25;4.75;;;17.30;99.90;;;;;;2077160;28;20034;-72
2023/09/16 02:22:19;;;;;;;7.10;4.93;;;17.30;99.90;;;;;;2078317;28;20087;-72
2023/09/16 02:23:21;;;;;;;5.82;5.32;;;17.20;99.90;;;;;;2076604;28;20101;-72
2023/09/16 02:24:22;;;;;;;7.45;5.20;;;17.20;99.90;;;;;;2077698;28;20024;-72
2023/09/16 02:25:22;;;;;;;6.20;5.43;;;17.30;99.90;;;;;;2077554;28;20069;-72
2023/09/16 02:26:23;;;;;;;6.82;6.03;;;17.30;99.90;;;;;;2075837;28;20548;-72
2023/09/16 02:27:24;;;;;;;7.15;5.22;;;17.30;99.90;;;;;;2077814;28;20030;-72
2023/09/16 02:28:25;;;;;;;7.30;5.63;;;17.20;99.90;;;;;;2077949;28;20445;-72
2023/09/16 02:29:25;;;;;;;5.85;5.22;;;17.20;99.90;;;;;;2079027;28;20075;-72
2023/09/16 02:30:26;;;;;;;9.57;5.93;;;17.30;99.90;;;;;;2075831;28;20109;-72
2023/09/16 02:31:26;;;;;;;5.65;5.05;;;17.30;99.90;;;;;;2076265;28;20033;-72
2023/09/16 02:32:28;;;;;;;5.25;4.78;;;17.30;99.90;;;;;;2076193;28;20029;-72
2023/09/16 02:33:29;;;;;;;6.45;5.50;;;17.30;99.90;;;;;;2076961;28;20029;-72
2023/09/16 02:34:31;;;;;;;5.78;5.18;;;17.30;99.90;;;;;;2077367;28;20040;-72
2023/09/16 02:35:32;;;;;;;7.80;5.97;;;17.30;99.90;;;;;;2076880;28;20028;-72
2023/09/16 02:36:33;;;;;;;5.80;5.07;;;17.30;99.90;;;;;;2069131;28;20060;-72
2023/09/16 02:37:33;;;;;;;6.80;5.38;;;17.30;99.90;;;;;;2067335;28;20034;-72
2023/09/16 02:38:34;;;;;;;9.20;5.38;;;17.30;99.90;;;;;;2077753;28;20060;-72
2023/09/16 02:39:34;;;;;;;5.82;5.22;;;17.30;99.90;;;;;;2075639;28;20026;-72
2023/09/16 02:40:40;;;;;;;7.78;5.68;;;17.30;99.90;;;;;;2078422;28;20060;-72
2023/09/16 02:41:41;;;;;;;5.90;4.47;;;17.30;99.90;;;;;;2077661;28;20546;-72
2023/09/16 02:42:41;;;;;;;7.60;5.13;;;17.30;99.90;;;;;;2078679;28;20424;-72
2023/09/16 02:43:42;;;;;;;5.22;4.72;;;17.40;99.90;;;;;;2075541;28;20026;-72
2023/09/16 02:44:42;;;;;;;5.90;5.22;;;17.30;99.90;;;;;;2076549;28;20040;-72
2023/09/16 02:45:43;;;;;;;5.43;4.93;;;17.40;99.90;;;;;;2077753;28;20503;-72
2023/09/16 02:46:44;;;;;;;6.03;4.57;;;17.40;99.90;;;;;;2077935;28;20022;-72
2023/09/16 02:47:44;;;;;;;6.60;4.85;;;17.40;99.90;;;;;;2077634;28;20032;-72
2023/09/16 02:48:45;;;;;;;7.05;5.38;;;17.30;99.90;;;;;;2069021;28;20576;-72
2023/09/16 02:49:45;;;;;;;9.60;5.35;;;17.40;99.90;;;;;;2068607;28;20100;-72
2023/09/16 02:50:47;;;;;;;6.13;5.07;;;17.40;99.90;;;;;;2076985;28;20018;-72
2023/09/16 02:51:48;;;;;;;5.47;4.97;;;17.40;99.90;;;;;;2076563;28;20025;-72
2023/09/16 02:52:49;;;;;;;5.50;4.90;;;17.40;99.90;;;;;;2077253;28;20017;-72
2023/09/16 02:53:52;;;;;;;8.55;5.03;;;17.40;99.90;;;;;;2075441;28;20103;-72
2023/09/16 02:54:53;;;;;;;7.28;4.43;;;17.40;99.90;;;;;;2078092;28;20104;-72
2023/09/16 02:55:57;;;;;;;8.93;5.85;;;17.40;99.90;;;;;;2076615;28;20029;-72
2023/09/16 02:56:58;;;;;;;7.68;4.82;;;17.40;99.90;;;;;;2078028;28;20022;-72
2023/09/16 02:57:59;;;;;;;5.82;4.97;;;17.40;99.90;;;;;;2075907;28;20017;-72
2023/09/16 02:59:01;;;;;;;5.68;4.47;;;17.40;99.90;;;;;;2076521;28;20021;-72
2023/09/16 03:00:03;;;;;;;5.88;5.00;;;17.40;99.90;;;;;;2077283;28;20053;-72
2023/09/16 03:01:09;;;;;;;5.88;4.45;;;17.40;99.90;;;;;;2075507;28;20018;-72
2023/09/16 03:02:09;;;;;;;5.78;4.55;;;17.40;99.90;;;;;;2076442;28;20492;-72
2023/09/16 03:03:10;;;;;;;7.07;4.82;;;17.40;99.90;;;;;;2077783;28;20052;-72
2023/09/16 03:04:10;;;;;;;4.72;4.32;;;17.40;99.90;;;;;;2077418;28;20092;-72
2023/09/16 03:05:11;;;;;;;4.90;4.45;;;17.40;99.90;;;;;;2076757;28;20127;-72
2023/09/16 03:06:11;;;;;;;4.93;4.43;;;17.40;99.90;;;;;;2077878;28;20152;-72
2023/09/16 03:07:12;;;;;;;5.38;4.88;;;17.40;99.90;;;;;;2077085;28;20030;-72
2023/09/16 03:08:13;;;;;;;9.30;4.70;;;17.40;99.90;;;;;;2076979;28;20037;-72
2023/09/16 03:09:14;;;;;;;4.18;3.78;;;17.40;99.90;;;;;;2076687;28;20026;-72
2023/09/16 03:10:15;;;;;;;7.13;4.88;;;17.40;99.90;;;;;;2076640;28;20065;-72
2023/09/16 03:11:16;;;;;;;5.80;4.13;;;17.40;99.90;;;;;;2077383;28;20038;-72
2023/09/16 03:12:16;;;;;;;5.10;4.60;;;17.40;99.90;;;;;;2078282;28;20507;-72
2023/09/16 03:13:17;;;;;;;5.70;4.78;;;17.40;99.90;;;;;;2077143;28;20041;-72
2023/09/16 03:14:17;;;;;;;4.70;4.10;;;17.40;99.90;;;;;;2078463;28;20140;-72
2023/09/16 03:15:18;;;;;;;4.82;4.43;;;17.40;99.90;;;;;;2076534;28;20030;-72
2023/09/16 03:16:23;;;;;;;6.90;4.70;;;17.40;99.90;;;;;;2076698;28;20108;-72
2023/09/16 03:17:23;;;;;;;5.68;4.40;;;17.40;99.90;;;;;;2076070;28;20029;-72
2023/09/16 03:18:24;;;;;;;4.78;4.30;;;17.40;99.90;;;;;;2077602;28;20024;-72
2023/09/16 03:19:28;;;;;;;6.93;4.82;;;17.40;99.90;;;;;;2076374;28;20045;-72
2023/09/16 03:20:28;;;;;;;5.82;4.75;;;17.40;99.90;;;;;;2079061;28;20479;-72
2023/09/16 03:21:29;;;;;;;4.72;4.32;;;17.40;99.90;;;;;;2079309;28;20380;-72
2023/09/16 03:22:29;;;;;;;5.88;4.82;;;17.40;99.90;;;;;;2078603;28;20099;-72
2023/09/16 03:23:30;;;;;;;5.90;4.45;;;17.40;99.90;;;;;;2077596;28;20033;-72
2023/09/16 03:24:31;;;;;;;5.35;4.72;;;17.40;99.90;;;;;;2077771;28;20063;-72
2023/09/16 03:25:31;;;;;;;4.60;4.15;;;17.40;99.90;;;;;;2071004;28;20045;-72
2023/09/16 03:26:32;;;;;;;4.63;4.15;;;17.40;99.90;;;;;;2069898;28;20476;-72
2023/09/16 03:27:33;;;;;;;5.82;4.35;;;17.40;99.90;;;;;;2079176;28;20030;-72
2023/09/16 03:28:33;;;;;;;6.45;4.35;;;17.40;99.90;;;;;;2078644;28;20040;-72
2023/09/16 03:29:34;;;;;;;5.93;4.88;;;17.40;99.90;;;;;;2077869;28;20030;-72
2023/09/16 03:30:34;;;;;;;5.38;4.20;;;17.40;99.90;;;;;;2069667;28;20120;-72
2023/09/16 03:31:35;;;;;;;6.00;4.90;;;17.40;99.90;;;;;;2070496;28;20029;-72
2023/09/16 03:32:39;;;;;;;4.85;4.20;;;17.40;99.90;;;;;;2078750;28;20033;-72
2023/09/16 03:33:39;;;;;;;5.25;4.47;;;17.40;99.90;;;;;;2079709;28;20030;-72
2023/09/16 03:34:40;;;;;;;5.95;3.90;;;17.40;99.90;;;;;;2077603;28;20025;-72
2023/09/16 03:35:40;;;;;;;5.72;4.50;;;17.40;99.90;;;;;;2078624;28;20031;-72
2023/09/16 03:36:41;;;;;;;7.18;5.10;;;17.30;99.90;;;;;;2069403;28;20073;-72
2023/09/16 03:37:42;;;;;;;4.82;4.32;;;17.40;99.90;;;;;;2071007;28;20049;-72
2023/09/16 03:38:48;;;;;;;5.00;4.22;;;17.40;99.90;;;;;;2078600;28;20038;-72
2023/09/16 03:39:48;;;;;;;5.20;4.60;;;17.30;99.90;;;;;;2078526;28;20025;-72
2023/09/16 03:40:50;;;;;;;5.60;4.60;;;17.30;99.90;;;;;;2071192;28;20109;-72
2023/09/16 03:41:51;;;;;;;6.00;5.05;;;17.30;99.90;;;;;;2072300;28;20081;-72
2023/09/16 03:42:51;;;;;;;5.30;4.80;;;17.30;99.90;;;;;;2077526;28;20480;-72
2023/09/16 03:43:52;;;;;;;4.53;4.13;;;17.30;99.90;;;;;;2078899;28;20022;-72
2023/09/16 03:44:52;;;;;;;6.30;4.28;;;17.30;99.90;;;;;;2079380;28;20021;-72
2023/09/16 03:45:53;;;;;;;6.55;4.43;;;17.30;99.90;;;;;;2078483;28;20500;-72
2023/09/16 03:46:54;;;;;;;6.38;4.68;;;17.30;99.90;;;;;;2078355;28;20025;-72
2023/09/16 03:47:54;;;;;;;9.80;4.65;;;17.20;99.90;;;;;;2079033;28;20026;-72
2023/09/16 03:48:55;;;;;;;6.63;4.45;;;17.30;99.90;;;;;;2067857;28;20030;-72
2023/09/16 03:49:56;;;;;;;4.60;4.18;;;17.30;99.90;;;;;;2067865;28;20105;-72
2023/09/16 03:50:56;;;;;;;4.75;4.35;;;17.20;99.90;;;;;;2078298;28;20091;-72
2023/09/16 03:51:57;;;;;;;5.70;4.43;;;17.30;99.90;;;;;;2078809;28;20096;-72
2023/09/16 03:52:57;;;;;;;5.75;4.90;;;17.30;99.90;;;;;;2079573;28;20021;-72
2023/09/16 03:53:58;;;;;;;6.43;4.03;;;17.20;99.90;;;;;;2079269;28;20477;-72
2023/09/16 03:54:58;;;;;;;5.55;4.90;;;17.20;99.90;;;;;;2078320;28;20150;-72
2023/09/16 03:55:59;;;;;;;5.95;5.35;;;17.20;99.90;;;;;;2078940;28;20034;-72
2023/09/16 03:56:59;;;;;;;6.10;4.75;;;17.30;99.90;;;;;;2077988;28;20563;-72
2023/09/16 03:58:00;;;;;;;6.63;5.03;;;17.30;99.90;;;;;;2071108;28;20049;-72
2023/09/16 03:59:01;;;;;;;5.85;4.95;;;17.20;99.90;;;;;;2070544;28;20485;-72
2023/09/16 04:00:06;;;;;;;5.00;4.50;;;17.30;99.90;;;;;;2079897;28;20017;-72
2023/09/16 04:01:07;;;;;;;5.32;4.38;;;17.30;99.90;;;;;;2077917;28;20034;-72
2023/09/16 04:02:08;;;;;;;7.13;4.70;;;17.20;99.90;;;;;;2077581;28;20563;-72
2023/09/16 04:03:08;;;;;;;5.88;4.57;;;17.20;99.90;;;;;;2078774;28;20068;-72
2023/09/16 04:04:09;;;;;;;5.65;4.70;;;17.20;99.90;;;;;;2078353;28;20025;-72
2023/09/16 04:05:10;;;;;;;5.82;4.32;;;17.20;99.90;;;;;;2076643;28;20018;-72
2023/09/16 04:06:10;;;;;;;5.25;4.75;;;17.20;99.90;;;;;;2077240;28;20091;-72
2023/09/16 04:07:11;;;;;;;6.10;5.00;;;17.20;99.90;;;;;;2079214;28;20029;-72
2023/09/16 04:08:11;;;;;;;5.25;4.70;;;17.30;99.90;;;;;;2076072;28;20071;-72
2023/09/16 04:09:12;;;;;;;7.32;5.20;;;17.20;99.90;;;;;;2077594;28;20034;-72
2023/09/16 04:10:13;;;;;;;4.80;4.28;;;17.30;99.90;;;;;;2079360;28;20108;-72
2023/09/16 04:11:13;;;;;;;6.50;4.55;;;17.30;99.90;;;;;;2079679;28;20104;-72
2023/09/16 04:12:14;;;;;;;5.82;5.20;;;17.20;99.90;;;;;;2079097;28;20139;-72
2023/09/16 04:13:15;;;;;;;4.85;4.35;;;17.30;99.90;;;;;;2078376;28;20079;-72
2023/09/16 04:14:15;;;;;;;5.15;4.70;;;17.20;99.90;;;;;;2078335;28;20034;-72
2023/09/16 04:15:16;;;;;;;4.97;4.30;;;17.20;99.90;;;;;;2076984;28;20041;-72
2023/09/16 04:16:17;;;;;;;5.20;4.70;;;17.30;99.90;;;;;;2078091;28;20071;-72
2023/09/16 04:17:19;;;;;;;4.95;4.53;;;17.30;99.90;;;;;;2078137;28;20029;-72
2023/09/16 04:18:19;;;;;;;4.53;4.13;;;17.30;99.90;;;;;;2076517;28;20029;-72
2023/09/16 04:19:20;;;;;;;6.35;5.20;;;17.30;99.90;;;;;;2077699;28;20550;-72
2023/09/16 04:20:24;;;;;;;5.40;4.10;;;17.30;99.90;;;;;;2077939;28;20423;-72
2023/09/16 04:21:26;;;;;;;5.20;4.70;;;17.30;99.90;;;;;;2076500;28;20521;-72
2023/09/16 04:22:26;;;;;;;6.60;5.30;;;17.20;99.90;;;;;;2078148;28;20075;-72
2023/09/16 04:23:27;;;;;;;5.88;4.90;;;17.20;99.90;;;;;;2076034;28;20022;-72
2023/09/16 04:24:28;;;;;;;6.32;4.82;;;17.30;99.90;;;;;;2078816;28;20483;-72
2023/09/16 04:25:28;;;;;;;4.60;4.15;;;17.30;99.90;;;;;;2079985;28;20034;-72
2023/09/16 04:26:29;;;;;;;5.60;4.40;;;17.30;99.90;;;;;;2076803;28;20037;-72
2023/09/16 04:27:29;;;;;;;5.93;4.38;;;17.30;99.90;;;;;;2079141;28;20381;-72
2023/09/16 04:28:30;;;;;;;4.70;4.30;;;17.20;99.90;;;;;;2078059;28;20029;-72
2023/09/16 04:29:31;;;;;;;5.10;4.47;;;17.20;99.90;;;;;;2076493;28;20052;-72
2023/09/16 04:30:46;;;;;;;4.82;4.35;;;17.30;99.90;;;;;;2078085;28;20062;-72
2023/09/16 04:31:47;;;;;;;5.30;4.80;;;17.30;99.90;;;;;;2078797;28;20350;-72
2023/09/16 04:32:47;;;;;;;6.53;5.25;;;17.20;99.90;;;;;;2078411;28;20136;-72
2023/09/16 04:33:48;;;;;;;5.50;4.65;;;17.30;99.90;;;;;;2078172;28;20550;-72
2023/09/16 04:34:49;;;;;;;5.95;4.60;;;17.20;99.90;;;;;;2078780;28;20132;-72
2023/09/16 04:35:50;;;;;;;5.60;4.35;;;17.20;99.90;;;;;;2078329;28;20042;-72
2023/09/16 04:36:54;;;;;;;5.28;4.78;;;17.20;99.90;;;;;;2078709;28;20025;-72
2023/09/16 04:37:55;;;;;;;6.70;4.43;;;17.20;99.90;;;;;;2078580;28;20026;-72
2023/09/16 04:38:57;;;;;;;8.25;4.93;;;17.20;99.90;;;;;;2078255;28;20029;-72
2023/09/16 04:39:58;;;;;;;5.38;4.88;;;17.20;99.90;;;;;;2078800;28;20052;-72
2023/09/16 04:40:59;;;;;;;8.65;5.20;;;17.20;99.90;;;;;;2078274;28;20058;-72
2023/09/16 04:41:59;;;;;;;6.10;4.68;;;17.20;99.90;;;;;;2077361;28;20033;-72
2023/09/16 04:43:00;;;;;;;5.90;5.28;;;17.10;99.90;;;;;;2079059;28;20380;-72
2023/09/16 04:44:00;;;;;;;8.50;4.90;;;17.20;99.90;;;;;;2078087;28;20025;-72
2023/09/16 04:45:01;;;;;;;7.30;5.68;;;17.20;99.90;;;;;;2077213;28;20491;-72
2023/09/16 04:46:02;;;;;;;5.95;5.35;;;17.20;99.90;;;;;;2077769;28;20144;-72
2023/09/16 04:47:05;;;;;;;7.75;5.57;;;17.10;99.90;;;;;;2078330;28;20030;-72
2023/09/16 04:48:06;;;;;;;5.85;4.43;;;17.10;99.90;;;;;;2077321;28;20034;-72
2023/09/16 04:49:06;;;;;;;6.55;5.03;;;17.10;99.90;;;;;;2078279;28;20519;-72
2023/09/16 04:50:07;;;;;;;5.22;4.70;;;17.20;99.90;;;;;;2078044;28;20116;-72
2023/09/16 04:51:09;;;;;;;6.32;4.47;;;17.10;99.90;;;;;;2078689;28;20052;-72
2023/09/16 04:52:10;;;;;;;5.38;4.88;;;17.10;99.90;;;;;;2079673;28;20116;-72
2023/09/16 04:53:10;;;;;;;6.50;5.22;;;17.20;99.90;;;;;;2078900;28;20042;-72
2023/09/16 04:54:11;;;;;;;5.38;4.88;;;17.10;99.90;;;;;;2078180;28;20040;-72
2023/09/16 04:55:11;;;;;;;5.80;4.82;;;17.10;99.90;;;;;;2077337;28;20044;-72
2023/09/16 04:56:12;;;;;;;5.85;5.32;;;17.10;99.90;;;;;;2076581;28;20033;-72
2023/09/16 04:57:13;;;;;;;5.65;5.10;;;17.10;99.90;;;;;;2076601;28;20381;-72
2023/09/16 04:58:14;;;;;;;6.10;4.82;;;17.10;99.90;;;;;;2079515;28;20024;-72
2023/09/16 04:59:14;;;;;;;6.38;4.72;;;17.10;99.90;;;;;;2078257;28;20021;-72
2023/09/16 05:00:17;;;;;;;5.50;4.65;;;17.10;99.90;;;;;;2077479;28;20522;-72
2023/09/16 05:01:18;;;;;;;5.45;4.90;;;17.10;99.90;;;;;;2076557;28;20022;-72
2023/09/16 05:02:18;;;;;;;5.43;4.45;;;17.10;99.90;;;;;;2077135;28;20025;-72
2023/09/16 05:03:19;;;;;;;5.00;4.00;;;17.10;99.90;;;;;;2077570;28;20491;-72
2023/09/16 05:04:19;;;;;;;4.50;4.10;;;17.10;99.90;;;;;;2076827;28;20087;-72
2023/09/16 05:05:20;;;;;;;5.28;4.78;;;17.10;99.90;;;;;;2078109;28;20603;-72
2023/09/16 05:06:20;;;;;;;5.22;4.38;;;17.10;99.90;;;;;;2078129;28;20108;-72
2023/09/16 05:07:21;;;;;;;4.90;4.40;;;17.10;99.90;;;;;;2078423;28;20030;-72
2023/09/16 05:08:22;;;;;;;5.47;4.68;;;17.10;99.90;;;;;;2077169;28;20028;-72
2023/09/16 05:09:22;;;;;;;5.13;4.50;;;17.10;99.90;;;;;;2077868;28;20034;-72
2023/09/16 05:10:23;;;;;;;7.63;5.22;;;17.20;99.90;;;;;;2075252;28;20030;-72
2023/09/16 05:11:24;;;;;;;6.95;5.13;;;17.10;99.90;;;;;;2075963;28;20135;-72
2023/09/16 05:12:24;;;;;;;5.55;4.93;;;17.10;99.90;;;;;;2075989;28;20040;-72
2023/09/16 05:13:25;;;;;;;7.65;5.45;;;17.10;99.90;;;;;;2075355;28;20033;-72
2023/09/16 05:14:26;;;;;;;7.63;4.50;;;17.10;99.90;;;;;;2076248;28;20030;-72
2023/09/16 05:15:26;;;;;;;5.90;4.60;;;17.10;99.90;;;;;;2077500;28;20029;-72
2023/09/16 05:16:27;;;;;;;5.28;4.13;;;17.10;99.90;;;;;;2076653;28;20046;-72
2023/09/16 05:17:27;;;;;;;5.15;4.65;;;17.10;99.90;;;;;;2075581;28;20028;-72
2023/09/16 05:18:28;;;;;;;6.50;4.80;;;17.10;99.90;;;;;;2075775;28;20023;-72
2023/09/16 05:19:29;;;;;;;6.00;5.20;;;17.10;99.90;;;;;;2077698;28;20412;-72
2023/09/16 05:20:29;;;;;;;5.88;5.15;;;17.10;99.90;;;;;;2073753;28;20393;-72
2023/09/16 05:21:30;;;;;;;4.93;4.50;;;17.10;99.90;;;;;;2077179;28;20033;-72